windsock image

Welcome to Bigfield Strip.

anemometer image
     

 Help for dials.  
 
Local Met:

Wind:   
10 Min average:  
281 ° / 9.5 kts (7.0)
229° / 9.3

Temperature:  
16.6°C C
Dew Point:  
15.3°C C
QNH:  
Trend:  
1017.9 mb mb
-1.0mb/hr
BigField Strip. This image updates approximately every minute, it can have a two minute delay.  
 

Humidity:  
92 %
Sunrise:   06:00z
Sunset:   17:47z
Updated:  
  UTC
 
   More met info, trends, radar, history etc. available here   

LUTON Metar   EGGW 282150Z AUTO 20014KT 3700 BR OVC002 16/16 Q1019
 
  TAF   2016/09/28 21:40 TAF AMD EGGW 282132Z 2821/2918 23011KT 6000 SCT003 OVC005 TEMPO 2821/2904 4000 -RADZ BR BKN003 PROB30 TEMPO 2822/2904 1400 DZ BKN001 BECMG 2904/2907 9999 BKN010 PROB30 TEMPO 2904/2907 SCT020 TEMPO 2907/2909 3000 RADZ BKN006 BECMG 2908/2911 FEW045
 
BENSON Metar   EGUB 282150Z 20012KT 9999 OVC004 17/16 Q1020 YLO2
 
  TAF   2016/09/28 21:12 TAF TAF EGUB 282107Z 2821/2823 CNL
 
Big Field view 1 icon   Big Field view 2 icon   Big Field view 3 icon   Chart AL3a in PDF icon   Chart AL3a in Word icon

WARNING:
This information is provided by the Airstrip unofficial weather station, DO NOT depend on the data provided here for any purpose.
This page is updated for latest Metars & TAF's every 5 minutes. Refresh the browser to check for the lastest.
Page designed for a minimum browser size of 1024x768.
© Copyright 2016 BigField Strip. This page auto generated 22:06 UTC - 28/09/2016   Contact Us
Valid HTML 4.01 Transitional     Windows uptime: 2 Days 19 Hours 34 Minutes 28 Seconds    WD started: 02:37 26/09/16    Free memory: 1513MB     Valid CSS!